Time;durP1;ratioP1;P1;durP2;ratioP2;P2;SDS_P1;SDS_P2;PMS_P1;PMS_P2;Temp;Humidity;BMP_temperature;BMP_pressure;BME280_temperature;BME280_humidity;BME280_pressure;Samples;Min_cycle;Max_cycle;Signal;HPM_P1;HPM_P2
2021/11/02 00:02:21;;;;;;;6.43;5.93;;;8.60;99.90;;;;;;5112112;28;20314;-70
2021/11/02 00:04:52;;;;;;;6.50;5.85;;;8.60;99.90;;;;;;5102246;28;20748;-70
2021/11/02 00:07:23;;;;;;;6.93;6.10;;;8.60;99.90;;;;;;5107863;28;20254;-71
2021/11/02 00:10:01;;;;;;;8.60;7.80;;;8.70;99.90;;;;;;5102219;28;20273;-75
2021/11/02 00:12:34;;;;;;;7.68;6.88;;;8.70;99.90;;;;;;5111302;28;20214;-72
2021/11/02 00:15:05;;;;;;;7.82;7.13;;;8.70;99.90;;;;;;5110153;28;20212;-72
2021/11/02 00:17:38;;;;;;;7.65;6.97;;;8.70;99.90;;;;;;5108438;28;20530;-69
2021/11/02 00:20:13;;;;;;;7.85;7.05;;;8.70;99.90;;;;;;5110430;28;20226;-74
2021/11/02 00:22:53;;;;;;;7.72;6.97;;;8.80;99.90;;;;;;5100782;28;20234;-70
2021/11/02 00:25:25;;;;;;;7.05;6.45;;;8.80;99.90;;;;;;5109183;28;20597;-73
2021/11/02 00:27:59;;;;;;;7.70;7.00;;;8.70;99.90;;;;;;5103719;28;20208;-71
2021/11/02 00:30:30;;;;;;;7.78;6.82;;;8.80;99.90;;;;;;5110085;28;20219;-70
2021/11/02 00:33:01;;;;;;;8.30;7.50;;;8.80;99.90;;;;;;5110649;28;20220;-72
2021/11/02 00:35:32;;;;;;;6.70;6.10;;;8.80;99.90;;;;;;5109798;28;20212;-75
2021/11/02 00:38:03;;;;;;;7.55;6.95;;;8.70;99.90;;;;;;5111166;28;20208;-70
2021/11/02 00:40:36;;;;;;;7.70;6.90;;;8.80;99.90;;;;;;5109653;28;20552;-70
2021/11/02 00:43:09;;;;;;;7.30;6.70;;;8.80;99.90;;;;;;5111318;28;20220;-70
2021/11/02 00:45:41;;;;;;;7.60;6.90;;;8.80;99.90;;;;;;5109386;28;20311;-70
2021/11/02 00:48:13;;;;;;;7.10;6.50;;;8.80;99.90;;;;;;5110580;28;20208;-71
2021/11/02 00:50:46;;;;;;;7.40;6.80;;;8.80;99.90;;;;;;5109464;28;20222;-70
2021/11/02 00:53:16;;;;;;;7.45;6.85;;;8.80;99.90;;;;;;5113223;28;20216;-70
2021/11/02 00:55:48;;;;;;;7.85;7.07;;;8.80;99.90;;;;;;5112018;28;20585;-71
2021/11/02 00:58:22;;;;;;;9.68;8.70;;;8.80;99.90;;;;;;5112229;28;20694;-75
2021/11/02 01:00:53;;;;;;;8.38;7.65;;;8.70;99.90;;;;;;5109164;28;20233;-71
2021/11/02 01:03:24;;;;;;;8.10;7.38;;;8.70;99.90;;;;;;5105962;28;20251;-74
2021/11/02 01:05:55;;;;;;;9.57;8.68;;;8.70;99.90;;;;;;5092915;28;20212;-74
2021/11/02 01:08:26;;;;;;;11.07;8.68;;;8.70;99.90;;;;;;5110564;28;20701;-70
2021/11/02 01:10:56;;;;;;;8.25;7.55;;;8.70;99.90;;;;;;5105387;28;20223;-70
2021/11/02 01:13:29;;;;;;;9.30;8.48;;;8.70;99.90;;;;;;5110585;28;20678;-72
2021/11/02 01:16:00;;;;;;;8.80;8.00;;;8.60;99.90;;;;;;5093504;28;20207;-75
2021/11/02 01:18:31;;;;;;;8.60;7.80;;;8.70;99.90;;;;;;5108534;28;20218;-74
2021/11/02 01:21:02;;;;;;;8.82;8.02;;;8.70;99.90;;;;;;5096833;28;20208;-71
2021/11/02 01:23:35;;;;;;;9.88;8.95;;;8.70;99.90;;;;;;5110130;28;20586;-71
2021/11/02 01:26:06;;;;;;;8.95;7.70;;;8.70;99.90;;;;;;5110638;28;20207;-73
2021/11/02 01:28:38;;;;;;;8.13;7.32;;;8.70;99.90;;;;;;5108469;28;20216;-75
2021/11/02 01:31:09;;;;;;;8.50;7.70;;;8.70;99.90;;;;;;5109110;28;20211;-71
2021/11/02 01:33:41;;;;;;;8.98;8.13;;;8.70;99.90;;;;;;5100749;28;20225;-70
2021/11/02 01:36:12;;;;;;;9.07;7.97;;;8.70;99.90;;;;;;5108549;28;20216;-71
2021/11/02 01:38:42;;;;;;;9.32;8.43;;;8.70;99.90;;;;;;5110584;28;20231;-71
2021/11/02 01:41:18;;;;;;;8.98;8.00;;;8.70;99.90;;;;;;5109047;28;20204;-72
2021/11/02 01:43:50;;;;;;;8.48;7.65;;;8.70;99.90;;;;;;5110246;28;20591;-71
2021/11/02 01:46:26;;;;;;;9.65;8.75;;;8.70;99.90;;;;;;5108113;28;20216;-71
2021/11/02 01:48:58;;;;;;;9.85;8.85;;;8.80;99.90;;;;;;5102709;28;20214;-69
2021/11/02 01:51:30;;;;;;;9.10;8.20;;;8.80;99.90;;;;;;5112934;28;20657;-70
2021/11/02 01:54:02;;;;;;;9.38;8.40;;;8.80;99.90;;;;;;5110010;28;20252;-71
2021/11/02 01:56:33;;;;;;;10.40;9.30;;;8.90;99.90;;;;;;5110282;28;20330;-70
2021/11/02 01:59:06;;;;;;;9.20;8.35;;;8.90;99.90;;;;;;5108112;28;20211;-70
2021/11/02 02:01:48;;;;;;;9.00;8.20;;;8.80;99.90;;;;;;5108155;28;20236;-69
2021/11/02 02:04:32;;;;;;;11.77;10.60;;;8.80;99.90;;;;;;5103250;28;20237;-70
2021/11/02 02:07:10;;;;;;;10.63;9.63;;;8.80;99.90;;;;;;5110285;28;20243;-71
2021/11/02 02:09:46;;;;;;;10.90;9.88;;;8.70;99.90;;;;;;5107836;28;20238;-71
2021/11/02 02:12:28;;;;;;;9.65;8.75;;;8.70;99.90;;;;;;5110136;28;20216;-71
2021/11/02 02:15:11;;;;;;;10.45;9.50;;;8.70;99.90;;;;;;5107962;28;20215;-71
2021/11/02 02:17:53;;;;;;;11.05;10.07;;;8.60;99.90;;;;;;5106916;28;20613;-70
2021/11/02 02:20:42;;;;;;;10.05;9.10;;;8.60;99.90;;;;;;5104594;28;20207;-75
2021/11/02 02:23:38;;;;;;;10.57;9.57;;;8.50;99.90;;;;;;5104398;28;20219;-70
2021/11/02 02:26:18;;;;;;;11.52;10.38;;;8.50;99.90;;;;;;5099322;28;20208;-69
2021/11/02 02:28:57;;;;;;;13.00;11.73;;;8.50;99.90;;;;;;5108074;28;20308;-69
2021/11/02 02:31:31;;;;;;;159.43;142.52;;;8.50;99.90;;;;;;5108113;28;20211;-70
2021/11/02 02:34:03;;;;;;;20.05;18.08;;;8.50;99.90;;;;;;5102225;28;20211;-72
2021/11/02 02:36:35;;;;;;;14.55;13.02;;;8.50;99.90;;;;;;5108632;28;20541;-76
2021/11/02 02:39:09;;;;;;;16.88;15.10;;;8.50;99.90;;;;;;5109926;28;20218;-72
2021/11/02 02:41:41;;;;;;;12.98;11.85;;;8.60;99.90;;;;;;5106878;28;20208;-69
2021/11/02 02:44:14;;;;;;;14.45;13.05;;;8.50;99.90;;;;;;5112049;28;20290;-70
2021/11/02 02:46:46;;;;;;;14.18;12.75;;;8.50;99.90;;;;;;5111085;28;20283;-70
2021/11/02 02:49:17;;;;;;;13.00;11.90;;;8.60;99.90;;;;;;5114496;28;20237;-74
2021/11/02 02:51:49;;;;;;;13.75;12.45;;;8.60;99.90;;;;;;5113993;28;20211;-70
2021/11/02 02:54:21;;;;;;;13.77;12.55;;;8.50;99.90;;;;;;5111639;28;20521;-71
2021/11/02 02:56:52;;;;;;;18.15;16.45;;;8.60;99.90;;;;;;5113621;28;20218;-75
2021/11/02 02:59:25;;;;;;;19.70;17.92;;;8.60;99.90;;;;;;5109990;28;20219;-71
2021/11/02 03:01:56;;;;;;;111.63;100.43;;;8.70;99.90;;;;;;5113243;28;20578;-73
2021/11/02 03:04:33;;;;;;;32.13;28.88;;;8.70;99.90;;;;;;5106163;28;20234;-72
2021/11/02 03:07:05;;;;;;;17.95;16.25;;;8.70;99.90;;;;;;5111761;28;20211;-70
2021/11/02 03:09:36;;;;;;;13.20;12.10;;;8.70;99.90;;;;;;5113039;28;20222;-70
2021/11/02 03:12:08;;;;;;;15.07;13.55;;;8.70;99.90;;;;;;5111466;28;20215;-72
2021/11/02 03:14:52;;;;;;;14.95;13.60;;;8.70;99.90;;;;;;5113009;28;20204;-72
2021/11/02 03:17:28;;;;;;;14.52;13.15;;;8.70;99.90;;;;;;5110613;28;20223;-72
2021/11/02 03:57:25;;;;;;;14.38;12.95;;;8.80;99.90;;;;;;5112813;28;20697;-71
2021/11/02 04:45:56;;;;;;;14.65;13.25;;;8.80;99.90;;;;;;5110929;28;20219;-70
2021/11/02 05:48:08;;;;;;;11.63;10.60;;;9.00;99.90;;;;;;5102371;28;20654;-70
2021/11/02 05:54:03;;;;;;;11.20;10.20;;;9.10;99.90;;;;;;5109530;28;20219;-73
2021/11/02 05:56:36;;;;;;;11.65;10.65;;;9.10;99.90;;;;;;5099203;28;20741;-70
2021/11/02 06:01:59;;;;;;;12.40;11.10;;;9.20;99.90;;;;;;5110098;28;20231;-71
2021/11/02 06:04:45;;;;;;;12.68;11.45;;;9.10;99.90;;;;;;5102751;28;20254;-72
2021/11/02 06:07:34;;;;;;;11.15;10.05;;;9.10;99.90;;;;;;5110796;28;20612;-73
2021/11/02 06:10:18;;;;;;;10.67;9.70;;;9.00;99.90;;;;;;5108231;28;20211;-71
2021/11/02 06:30:05;;;;;;;10.93;10.00;;;9.20;99.90;;;;;;5106386;28;20208;-70
2021/11/02 06:32:39;;;;;;;11.10;10.10;;;9.20;99.90;;;;;;5110760;28;20222;-73
2021/11/02 06:35:16;;;;;;;13.32;10.95;;;9.20;99.90;;;;;;5112425;28;20207;-72
2021/11/02 06:38:01;;;;;;;11.30;10.30;;;9.20;99.90;;;;;;5113042;28;20214;-72
2021/11/02 06:43:45;;;;;;;11.25;10.20;;;9.10;99.90;;;;;;5113733;28;20499;-74
2021/11/02 06:46:54;;;;;;;10.60;9.70;;;9.20;99.90;;;;;;5109150;28;20203;-72
2021/11/02 06:49:50;;;;;;;11.52;10.10;;;9.20;99.90;;;;;;5107976;28;20211;-73
2021/11/02 06:55:41;;;;;;;11.43;10.02;;;9.20;99.90;;;;;;5105680;28;20226;-76
2021/11/02 07:15:47;;;;;;;9.68;8.68;;;9.20;99.90;;;;;;5111074;28;20533;-72
2021/11/02 07:18:20;;;;;;;9.30;8.53;;;9.30;99.90;;;;;;5112835;28;20680;-74
2021/11/02 07:21:00;;;;;;;10.00;9.10;;;9.30;99.90;;;;;;5113106;28;20453;-70
2021/11/02 07:23:42;;;;;;;10.18;9.27;;;9.40;99.90;;;;;;5114953;28;20245;-69
2021/11/02 07:26:39;;;;;;;9.20;8.40;;;9.40;99.90;;;;;;5115377;28;20330;-70
2021/11/02 08:46:25;;;;;;;7.95;7.18;;;9.40;99.90;;;;;;5101973;28;20265;-74
2021/11/02 08:48:57;;;;;;;8.73;8.02;;;9.40;99.90;;;;;;5101230;28;20211;-72
2021/11/02 08:51:28;;;;;;;9.75;8.63;;;9.40;99.90;;;;;;5111607;28;20223;-69
2021/11/02 08:54:01;;;;;;;7.93;7.25;;;9.40;99.90;;;;;;5102103;28;20698;-70
2021/11/02 08:56:32;;;;;;;9.35;8.45;;;9.50;99.90;;;;;;5102793;28;20208;-77
2021/11/02 08:59:02;;;;;;;8.63;7.82;;;9.40;99.90;;;;;;5101154;28;20208;-69
2021/11/02 09:01:49;;;;;;;8.20;7.47;;;9.40;99.90;;;;;;5101366;28;20236;-70
2021/11/02 09:04:21;;;;;;;9.13;8.23;;;9.40;99.90;;;;;;5101201;28;20449;-69
2021/11/02 09:06:52;;;;;;;9.18;8.43;;;9.40;99.90;;;;;;5109316;28;21020;-70
2021/11/02 09:09:25;;;;;;;9.32;8.43;;;9.40;99.90;;;;;;5090877;28;20662;-71
2021/11/02 09:11:57;;;;;;;8.48;7.68;;;9.50;99.90;;;;;;5103985;28;20211;-70
2021/11/02 09:14:32;;;;;;;8.03;7.30;;;9.50;99.90;;;;;;5101867;28;20226;-69
2021/11/02 09:17:04;;;;;;;8.53;7.67;;;9.50;99.90;;;;;;5095683;28;20454;-69
2021/11/02 09:19:37;;;;;;;8.20;7.47;;;9.50;99.90;;;;;;5097940;28;20458;-73
2021/11/02 09:22:10;;;;;;;9.05;8.15;;;9.50;99.90;;;;;;5111117;28;20219;-71
2021/11/02 09:24:44;;;;;;;8.90;8.10;;;9.40;99.90;;;;;;5097157;28;20211;-69
2021/11/02 09:27:16;;;;;;;8.65;7.85;;;9.40;99.90;;;;;;5096150;28;20220;-70
2021/11/02 09:29:48;;;;;;;9.20;8.30;;;9.30;99.90;;;;;;5095245;28;20570;-70
2021/11/02 09:32:19;;;;;;;9.10;8.20;;;9.30;99.90;;;;;;5098255;28;20450;-69
2021/11/02 09:34:50;;;;;;;9.82;8.55;;;9.30;99.90;;;;;;5108623;28;20222;-72
2021/11/02 09:37:26;;;;;;;9.02;8.23;;;9.40;99.90;;;;;;5110737;28;20219;-73
2021/11/02 09:40:03;;;;;;;10.45;9.45;;;9.40;99.90;;;;;;5088950;28;20554;-71
2021/11/02 09:42:56;;;;;;;8.48;7.70;;;9.40;99.90;;;;;;5106731;28;20207;-71
2021/11/02 09:46:05;;;;;;;10.95;8.30;;;9.50;99.90;;;;;;5102063;28;20405;-71
2021/11/02 09:49:03;;;;;;;8.90;8.00;;;9.50;99.90;;;;;;5097755;28;20219;-71
2021/11/02 09:52:15;;;;;;;10.15;8.27;;;9.40;99.90;;;;;;5090417;28;20216;-76
2021/11/02 09:55:10;;;;;;;9.33;8.50;;;9.40;99.90;;;;;;5098012;28;20348;-72
2021/11/02 09:58:19;;;;;;;9.10;8.30;;;9.40;99.90;;;;;;5096460;28;20449;-71
2021/11/02 10:01:08;;;;;;;10.50;9.50;;;9.40;99.90;;;;;;5027033;28;20859;-70
2021/11/02 10:04:31;;;;;;;10.38;9.02;;;9.40;99.90;;;;;;5036614;28;20214;-70
2021/11/02 10:07:23;;;;;;;8.18;7.47;;;9.30;99.90;;;;;;5104857;28;20517;-69
2021/11/02 10:10:00;;;;;;;9.63;8.73;;;9.40;99.90;;;;;;5104459;28;20222;-70
2021/11/02 10:12:45;;;;;;;9.65;8.82;;;9.40;99.90;;;;;;5101520;28;20242;-70
2021/11/02 10:15:34;;;;;;;8.30;7.47;;;9.40;99.90;;;;;;5110435;28;20226;-73
2021/11/02 10:18:50;;;;;;;8.43;7.63;;;9.40;99.90;;;;;;5096957;28;20212;-71
2021/11/02 10:21:48;;;;;;;8.95;7.95;;;9.40;99.90;;;;;;5102252;28;20282;-71
2021/11/02 10:24:46;;;;;;;9.23;8.43;;;9.40;99.90;;;;;;5101578;28;20215;-71
2021/11/02 10:27:34;;;;;;;8.63;7.72;;;9.40;99.90;;;;;;5107762;28;20645;-72
2021/11/02 10:30:34;;;;;;;9.32;8.32;;;9.40;99.90;;;;;;5106267;28;20642;-69
2021/11/02 10:33:08;;;;;;;8.43;7.72;;;9.40;99.90;;;;;;5104568;28;20218;-73
2021/11/02 10:35:49;;;;;;;8.82;8.07;;;9.30;99.90;;;;;;5102444;28;20216;-70
2021/11/02 10:38:27;;;;;;;9.07;8.13;;;9.30;99.90;;;;;;5101972;28;20223;-70
2021/11/02 10:41:08;;;;;;;9.00;7.75;;;9.30;99.90;;;;;;5096801;28;20219;-70
2021/11/02 10:44:00;;;;;;;9.15;8.25;;;9.30;99.90;;;;;;5105485;28;20219;-71
2021/11/02 10:46:37;;;;;;;8.60;7.80;;;9.30;99.90;;;;;;5100002;28;20219;-73
2021/11/02 10:49:22;;;;;;;8.60;7.88;;;9.20;99.90;;;;;;5106936;28;20476;-69
2021/11/02 10:52:05;;;;;;;9.23;8.00;;;9.20;99.90;;;;;;5108186;28;20219;-72
2021/11/02 10:54:53;;;;;;;8.50;7.70;;;9.20;99.90;;;;;;5089445;28;20217;-70
2021/11/02 10:57:40;;;;;;;8.57;7.80;;;9.10;99.90;;;;;;5105533;28;20204;-70
2021/11/02 11:00:12;;;;;;;8.23;7.43;;;9.10;99.90;;;;;;5096380;28;20239;-70
2021/11/02 11:02:49;;;;;;;9.60;8.60;;;9.00;99.90;;;;;;5107846;28;20308;-69
2021/11/02 11:05:20;;;;;;;11.35;8.55;;;9.10;99.90;;;;;;5106114;28;20217;-69
2021/11/02 11:07:53;;;;;;;9.20;8.30;;;9.00;99.90;;;;;;5100352;28;20228;-69
2021/11/02 11:10:28;;;;;;;8.55;7.72;;;8.90;99.90;;;;;;5107872;28;20212;-69
2021/11/02 11:13:01;;;;;;;9.68;8.82;;;8.90;99.90;;;;;;5113586;28;20218;-71
2021/11/02 11:15:34;;;;;;;9.60;8.60;;;8.90;99.90;;;;;;5112504;27;20208;-69
2021/11/02 11:18:08;;;;;;;9.13;8.23;;;9.00;99.90;;;;;;5111098;28;20212;-70
2021/11/02 11:20:41;;;;;;;8.70;7.90;;;8.90;99.90;;;;;;5111930;27;20611;-72
2021/11/02 11:23:13;;;;;;;8.70;7.80;;;8.90;99.90;;;;;;5113157;28;20212;-70
2021/11/02 11:25:51;;;;;;;10.00;9.05;;;8.90;99.90;;;;;;5108180;28;20222;-74
2021/11/02 11:28:23;;;;;;;8.75;8.05;;;8.90;99.90;;;;;;5112887;28;20587;-70
2021/11/02 11:30:56;;;;;;;9.02;8.13;;;8.80;99.90;;;;;;5105792;28;20305;-75
2021/11/02 11:33:30;;;;;;;8.85;8.05;;;8.90;99.90;;;;;;5103475;28;20590;-73
2021/11/02 11:36:03;;;;;;;8.40;7.70;;;8.90;99.90;;;;;;5095810;28;20205;-72
2021/11/02 11:38:39;;;;;;;9.15;8.20;;;8.80;99.90;;;;;;5105124;28;20257;-72
2021/11/02 11:41:11;;;;;;;8.82;8.05;;;8.70;99.90;;;;;;5107363;28;20273;-71
2021/11/02 11:43:43;;;;;;;10.00;9.00;;;8.70;99.90;;;;;;5109522;28;20218;-72
2021/11/02 11:46:14;;;;;;;9.30;8.45;;;8.70;99.90;;;;;;5101522;28;20232;-73
2021/11/02 11:48:55;;;;;;;9.60;8.60;;;8.70;99.90;;;;;;5100251;28;20247;-71
2021/11/02 11:51:27;;;;;;;8.65;7.88;;;8.70;99.90;;;;;;5112419;28;20629;-73
2021/11/02 11:54:02;;;;;;;10.10;9.20;;;8.60;99.90;;;;;;5108590;28;20213;-70
2021/11/02 11:56:36;;;;;;;9.50;8.70;;;8.50;99.90;;;;;;5101449;28;20212;-71
2021/11/02 11:59:16;;;;;;;9.45;8.55;;;8.50;99.90;;;;;;5100325;28;20246;-70
2021/11/02 12:01:57;;;;;;;10.10;9.13;;;8.40;99.90;;;;;;5097806;28;20236;-70
2021/11/02 12:04:38;;;;;;;9.15;8.25;;;8.40;99.90;;;;;;5101949;28;20212;-70
2021/11/02 12:07:16;;;;;;;9.95;8.95;;;8.50;99.90;;;;;;5108651;28;20298;-70
2021/11/02 12:09:48;;;;;;;9.65;8.75;;;8.50;99.90;;;;;;5100485;28;20208;-73
2021/11/02 12:12:23;;;;;;;9.63;8.63;;;8.50;99.90;;;;;;5107559;28;20311;-70
2021/11/02 12:14:55;;;;;;;9.63;8.73;;;8.50;99.90;;;;;;5099119;28;20208;-70
2021/11/02 12:17:30;;;;;;;10.10;9.13;;;8.50;99.90;;;;;;5107087;28;20580;-70
2021/11/02 12:20:11;;;;;;;9.98;9.07;;;8.40;99.90;;;;;;5097891;28;20212;-72
2021/11/02 12:22:56;;;;;;;11.27;10.27;;;8.40;99.90;;;;;;5100822;28;20215;-70
2021/11/02 12:25:33;;;;;;;10.60;9.60;;;8.40;99.90;;;;;;5102180;28;20219;-74
2021/11/02 12:28:05;;;;;;;10.40;9.43;;;8.40;99.90;;;;;;5096733;28;20291;-70
2021/11/02 12:30:36;;;;;;;10.45;9.45;;;8.50;99.90;;;;;;5109934;28;20713;-70
2021/11/02 12:33:12;;;;;;;9.80;8.90;;;8.40;99.90;;;;;;5102112;28;20211;-73
2021/11/02 12:35:53;;;;;;;10.80;9.68;;;8.40;99.90;;;;;;5104025;28;20219;-73
2021/11/02 12:38:32;;;;;;;10.80;9.80;;;8.30;99.90;;;;;;5110907;28;20207;-72
2021/11/02 12:41:15;;;;;;;10.80;9.80;;;8.40;99.90;;;;;;5087888;28;20265;-70
2021/11/02 12:43:47;;;;;;;10.57;9.65;;;8.30;99.90;;;;;;5102663;28;20577;-73
2021/11/02 12:46:19;;;;;;;11.60;9.57;;;8.40;99.90;;;;;;5108262;28;20208;-70
2021/11/02 12:48:52;;;;;;;11.15;10.10;;;8.50;99.90;;;;;;5099897;28;20215;-70
2021/11/02 12:51:32;;;;;;;12.10;10.82;;;8.40;99.90;;;;;;5111108;28;20307;-70
2021/11/02 12:54:08;;;;;;;11.68;10.68;;;8.40;99.90;;;;;;5109090;28;20207;-73
2021/11/02 12:56:43;;;;;;;11.18;10.27;;;8.30;99.90;;;;;;5110043;28;20219;-73
2021/11/02 12:59:22;;;;;;;11.75;10.55;;;8.30;99.90;;;;;;5104895;28;20227;-70
2021/11/02 13:01:54;;;;;;;11.80;10.70;;;8.20;99.90;;;;;;5105488;27;20254;-70
2021/11/02 13:04:35;;;;;;;12.48;11.38;;;8.20;99.90;;;;;;5101043;28;20264;-70
2021/11/02 13:07:13;;;;;;;11.45;10.35;;;8.20;99.90;;;;;;5105493;28;20230;-70
2021/11/02 13:09:51;;;;;;;11.55;10.55;;;8.30;99.90;;;;;;5100153;28;20223;-70
2021/11/02 13:12:25;;;;;;;12.70;11.50;;;8.30;99.90;;;;;;5095033;28;20212;-71
2021/11/02 13:15:04;;;;;;;12.82;11.55;;;8.30;99.90;;;;;;5101418;28;20211;-70
2021/11/02 13:17:44;;;;;;;12.60;11.23;;;8.40;99.90;;;;;;5109206;28;20211;-72
2021/11/02 13:20:28;;;;;;;13.68;12.27;;;8.30;99.90;;;;;;5108147;28;20215;-71
2021/11/02 13:23:01;;;;;;;13.27;12.07;;;8.40;99.90;;;;;;5100177;28;20673;-70
2021/11/02 13:25:40;;;;;;;13.15;11.90;;;8.30;99.90;;;;;;5096981;28;20704;-70
2021/11/02 13:28:11;;;;;;;12.63;11.40;;;8.30;99.90;;;;;;5102064;28;20334;-71
2021/11/02 13:30:43;;;;;;;12.85;11.65;;;8.30;99.90;;;;;;5102094;28;20215;-75
2021/11/02 13:33:20;;;;;;;14.07;12.48;;;8.20;99.90;;;;;;5101140;28;20212;-71
2021/11/02 13:35:53;;;;;;;14.55;11.93;;;8.20;99.90;;;;;;5108829;28;20580;-70
2021/11/02 13:38:31;;;;;;;12.65;11.45;;;8.20;99.90;;;;;;5102661;28;20681;-69
2021/11/02 13:41:10;;;;;;;16.00;12.20;;;8.20;99.90;;;;;;5098066;28;20580;-69
2021/11/02 13:43:43;;;;;;;13.35;12.02;;;8.20;99.90;;;;;;5107627;28;20239;-69
2021/11/02 13:46:16;;;;;;;13.00;11.60;;;8.20;99.90;;;;;;5100078;28;21680;-73
2021/11/02 13:48:47;;;;;;;13.82;12.43;;;8.10;99.90;;;;;;5105628;28;20255;-69
2021/11/02 13:51:19;;;;;;;12.90;11.70;;;8.10;99.90;;;;;;5110381;28;20664;-69
2021/11/02 13:53:52;;;;;;;13.68;11.85;;;8.20;99.90;;;;;;5106843;28;20218;-70
2021/11/02 13:56:24;;;;;;;13.30;12.10;;;8.10;99.90;;;;;;5102210;28;20560;-70
2021/11/02 13:58:55;;;;;;;13.95;12.68;;;8.10;99.90;;;;;;5101863;28;20209;-70
2021/11/02 14:01:30;;;;;;;14.05;12.60;;;8.10;99.90;;;;;;5101783;28;20603;-69
2021/11/02 14:04:06;;;;;;;14.27;12.98;;;8.10;99.90;;;;;;5088413;28;20521;-69
2021/11/02 14:06:41;;;;;;;14.30;12.80;;;8.10;99.90;;;;;;5099601;28;20215;-71
2021/11/02 14:09:15;;;;;;;14.93;13.32;;;8.10;99.90;;;;;;5102073;28;20234;-69
2021/11/02 14:11:46;;;;;;;13.50;11.63;;;8.00;99.90;;;;;;5106935;28;20215;-68
2021/11/02 14:14:31;;;;;;;14.25;13.05;;;8.00;99.90;;;;;;5099838;28;20251;-73
2021/11/02 14:17:16;;;;;;;14.57;13.13;;;8.00;99.90;;;;;;5103227;28;20281;-70
2021/11/02 14:19:48;;;;;;;14.20;12.80;;;8.10;99.90;;;;;;5094983;28;20215;-69
2021/11/02 14:22:47;;;;;;;16.08;14.60;;;8.20;99.90;;;;;;5109332;28;20677;-70
2021/11/02 14:25:20;;;;;;;16.95;15.25;;;8.30;99.90;;;;;;5091722;28;20212;-69
2021/11/02 14:27:52;;;;;;;15.38;13.75;;;8.30;99.90;;;;;;5100925;28;20223;-71
2021/11/02 14:30:37;;;;;;;15.75;14.35;;;8.30;99.90;;;;;;5106255;28;20216;-76
2021/11/02 14:33:19;;;;;;;14.15;12.75;;;8.20;99.90;;;;;;5100503;28;20208;-71
2021/11/02 14:35:53;;;;;;;13.85;12.55;;;8.20;99.90;;;;;;5088312;28;20219;-74
2021/11/02 14:38:27;;;;;;;13.98;12.60;;;8.20;99.90;;;;;;5089358;28;20208;-74
2021/11/02 14:41:33;;;;;;;14.65;13.32;;;8.20;99.90;;;;;;5088062;28;20557;-71
2021/11/02 14:44:27;;;;;;;12.98;11.80;;;8.30;99.90;;;;;;5099797;28;20666;-72
2021/11/02 14:46:59;;;;;;;13.57;12.18;;;8.20;99.90;;;;;;5100400;28;20216;-72
2021/11/02 14:49:43;;;;;;;15.57;14.07;;;8.10;99.90;;;;;;5090699;28;20244;-72
2021/11/02 14:52:27;;;;;;;13.90;12.50;;;8.20;99.90;;;;;;5109811;28;20581;-72
2021/11/02 14:54:58;;;;;;;13.95;12.60;;;8.20;99.90;;;;;;5096345;28;20215;-71
2021/11/02 14:57:53;;;;;;;13.55;12.35;;;8.20;99.90;;;;;;5115629;28;20222;-69
2021/11/02 15:00:43;;;;;;;12.68;11.52;;;8.30;99.90;;;;;;5101110;28;20631;-71
2021/11/02 15:03:21;;;;;;;13.55;12.15;;;8.30;99.90;;;;;;5100684;28;20725;-73
2021/11/02 15:05:53;;;;;;;14.00;12.65;;;8.40;99.90;;;;;;5105447;28;20299;-71
2021/11/02 15:08:24;;;;;;;13.30;12.00;;;8.50;99.90;;;;;;5093070;28;20280;-70
2021/11/02 15:10:56;;;;;;;13.35;11.57;;;8.50;99.90;;;;;;5091475;28;20615;-73
2021/11/02 15:13:28;;;;;;;11.98;10.85;;;8.50;99.90;;;;;;5101083;28;20322;-76
2021/11/02 15:16:01;;;;;;;14.32;12.93;;;8.60;99.90;;;;;;5100991;28;20208;-77
2021/11/02 15:18:50;;;;;;;13.25;12.05;;;8.70;99.90;;;;;;5100470;28;20578;-70
2021/11/02 15:21:31;;;;;;;12.05;10.93;;;8.70;99.90;;;;;;5100143;28;20691;-71
2021/11/02 15:24:06;;;;;;;13.43;12.20;;;8.70;99.90;;;;;;5108711;28;20218;-70
2021/11/02 15:26:51;;;;;;;12.38;11.10;;;8.80;99.90;;;;;;5101416;28;20235;-70
2021/11/02 15:29:26;;;;;;;13.52;12.15;;;8.80;99.90;;;;;;5106745;28;20231;-72
2021/11/02 15:32:06;;;;;;;13.35;12.15;;;8.80;99.90;;;;;;5108409;28;20214;-71
2021/11/02 15:34:48;;;;;;;14.05;12.55;;;8.80;99.90;;;;;;5089898;28;20212;-71
2021/11/02 15:37:21;;;;;;;12.10;10.90;;;8.80;99.90;;;;;;5108207;28;20216;-69
2021/11/02 15:39:55;;;;;;;13.50;12.27;;;8.80;99.90;;;;;;5102536;28;20216;-74
2021/11/02 15:42:29;;;;;;;12.68;11.48;;;8.80;99.90;;;;;;5096216;28;20214;-70
2021/11/02 15:45:04;;;;;;;12.82;11.35;;;8.90;99.90;;;;;;5092880;28;20222;-70
2021/11/02 15:47:39;;;;;;;11.77;10.70;;;8.90;99.90;;;;;;5101503;28;20212;-69
2021/11/02 15:50:12;;;;;;;12.00;10.70;;;9.00;99.90;;;;;;5093376;28;20485;-69
2021/11/02 15:52:43;;;;;;;12.18;11.05;;;9.10;99.90;;;;;;5111791;28;20522;-69
2021/11/02 15:55:17;;;;;;;11.15;10.15;;;9.20;99.90;;;;;;5105522;28;20704;-70
2021/11/02 15:57:53;;;;;;;11.98;10.80;;;9.20;99.90;;;;;;5091941;28;20227;-70
2021/11/02 16:00:27;;;;;;;11.05;10.00;;;9.20;99.90;;;;;;5099524;28;20225;-70
2021/11/02 16:02:59;;;;;;;11.00;9.90;;;9.20;99.90;;;;;;5099936;28;20276;-73
2021/11/02 16:05:31;;;;;;;11.70;10.50;;;9.30;99.90;;;;;;5109784;28;20532;-70
2021/11/02 16:08:03;;;;;;;11.60;10.50;;;9.40;99.90;;;;;;5111920;28;20577;-70
2021/11/02 16:10:35;;;;;;;11.90;10.70;;;9.50;99.90;;;;;;5110376;28;20208;-69
2021/11/02 16:13:06;;;;;;;11.45;10.32;;;9.50;99.90;;;;;;5112159;28;20303;-73
2021/11/02 16:15:40;;;;;;;10.95;9.85;;;9.60;99.90;;;;;;5107560;28;20218;-74
2021/11/02 16:18:18;;;;;;;11.27;10.27;;;9.70;99.90;;;;;;5099290;28;20217;-74
2021/11/02 16:20:49;;;;;;;10.18;9.18;;;9.80;99.90;;;;;;5098689;28;20806;-70
2021/11/02 16:23:22;;;;;;;10.70;9.60;;;9.90;99.90;;;;;;5109562;28;20685;-71
2021/11/02 16:25:57;;;;;;;10.15;9.25;;;10.00;99.90;;;;;;5103919;28;20453;-73
2021/11/02 16:28:29;;;;;;;10.47;9.47;;;10.10;99.90;;;;;;5092662;28;20213;-71
2021/11/02 16:31:03;;;;;;;10.57;9.47;;;10.20;99.90;;;;;;5089915;28;20454;-70
2021/11/02 16:33:35;;;;;;;10.45;9.55;;;10.30;99.90;;;;;;5098829;28;20453;-71
2021/11/02 16:36:17;;;;;;;11.47;10.30;;;10.30;99.90;;;;;;5096409;28;20207;-70
2021/11/02 16:38:48;;;;;;;10.90;9.80;;;10.50;99.90;;;;;;5099960;28;20447;-70
2021/11/02 16:41:22;;;;;;;11.03;9.93;;;10.60;99.90;;;;;;5090734;28;20479;-70
2021/11/02 16:43:55;;;;;;;10.97;10.03;;;10.70;99.90;;;;;;5101965;28;20481;-69
2021/11/02 16:46:31;;;;;;;11.07;10.07;;;10.70;99.90;;;;;;5108770;28;20961;-70
2021/11/02 16:49:05;;;;;;;10.00;9.20;;;10.70;99.90;;;;;;5108538;27;20473;-75
2021/11/02 16:51:47;;;;;;;10.90;9.80;;;10.70;99.90;;;;;;5111539;28;20449;-72
2021/11/02 16:54:21;;;;;;;11.02;9.77;;;10.90;99.90;;;;;;5102089;28;20447;-71
2021/11/02 16:57:05;;;;;;;10.10;9.20;;;11.00;99.90;;;;;;5102465;28;20791;-75
2021/11/02 16:59:51;;;;;;;10.70;9.73;;;11.10;99.90;;;;;;5096854;28;20469;-73
2021/11/02 17:02:25;;;;;;;10.43;9.43;;;11.40;99.90;;;;;;5098422;28;20468;-70
2021/11/02 17:05:08;;;;;;;11.00;9.93;;;11.50;99.90;;;;;;5096268;28;20449;-69
2021/11/02 17:07:42;;;;;;;10.77;9.70;;;11.70;99.90;;;;;;5099564;28;20457;-69
2021/11/02 17:10:34;;;;;;;10.63;9.73;;;11.90;99.90;;;;;;5103663;28;20985;-70
2021/11/02 17:13:07;;;;;;;11.73;10.53;;;12.10;99.90;;;;;;5095828;28;20460;-70
2021/11/02 17:15:40;;;;;;;10.93;9.93;;;12.20;99.90;;;;;;5097282;28;20559;-71
2021/11/02 17:18:15;;;;;;;9.73;8.93;;;12.10;99.90;;;;;;5108856;28;20445;-74
2021/11/02 17:20:49;;;;;;;10.57;9.57;;;12.20;99.90;;;;;;5107110;28;20449;-70
2021/11/02 17:23:22;;;;;;;11.00;10.00;;;12.20;99.90;;;;;;5108845;28;20454;-71
2021/11/02 17:25:53;;;;;;;10.90;9.90;;;12.30;99.90;;;;;;5102605;28;20457;-70
2021/11/02 17:28:25;;;;;;;10.43;9.40;;;12.40;99.90;;;;;;5105648;28;20450;-75
2021/11/02 17:30:56;;;;;;;11.47;10.37;;;12.50;99.90;;;;;;5095249;28;20485;-73
2021/11/02 17:33:29;;;;;;;11.43;10.30;;;12.40;99.90;;;;;;5098164;28;20468;-74
2021/11/02 17:36:01;;;;;;;10.33;9.40;;;12.50;99.90;;;;;;5100042;28;20953;-69
2021/11/02 17:38:32;;;;;;;10.73;9.83;;;12.60;99.90;;;;;;5112848;28;20446;-69
2021/11/02 17:41:04;;;;;;;10.73;9.83;;;12.70;99.90;;;;;;5104572;28;20522;-69
2021/11/02 17:43:36;;;;;;;11.10;10.00;;;12.80;99.90;;;;;;5103310;28;20976;-71
2021/11/02 17:46:08;;;;;;;11.80;10.60;;;12.80;99.90;;;;;;5098919;28;20461;-70
2021/11/02 17:48:41;;;;;;;10.50;9.50;;;13.00;99.90;;;;;;5107569;28;20458;-74
2021/11/02 17:51:12;;;;;;;10.77;9.80;;;13.20;99.90;;;;;;5096275;28;20488;-69
2021/11/02 17:53:43;;;;;;;10.50;9.67;;;13.40;99.90;;;;;;5105754;28;20477;-70
2021/11/02 17:56:15;;;;;;;10.50;9.50;;;13.40;99.90;;;;;;5098824;28;20536;-73
2021/11/02 17:58:46;;;;;;;10.60;9.80;;;13.30;99.90;;;;;;5099807;28;20458;-70
2021/11/02 18:01:18;;;;;;;10.27;9.27;;;13.50;99.90;;;;;;5089121;28;20470;-72
2021/11/02 18:03:51;;;;;;;10.20;9.30;;;13.60;99.90;;;;;;5092737;28;20486;-70